sensor_id;sensor_type;location;lat;lon;timestamp;temperature;humidity
32107;DHT22;18622;51.998;10.440;2023-04-15T06:04:29;8.30;99.90
32107;DHT22;18622;51.998;10.440;2023-04-15T06:06:58;8.30;99.90
32107;DHT22;18622;51.998;10.440;2023-04-15T06:09:26;8.30;99.90
32107;DHT22;18622;51.998;10.440;2023-04-15T06:11:54;8.30;99.90
32107;DHT22;18622;51.998;10.440;2023-04-15T06:14:23;8.30;99.90
32107;DHT22;18622;51.998;10.440;2023-04-15T06:16:51;8.40;99.90
32107;DHT22;18622;51.998;10.440;2023-04-15T06:19:18;8.40;99.90
32107;DHT22;18622;51.998;10.440;2023-04-15T06:21:46;8.40;99.90
32107;DHT22;18622;51.998;10.440;2023-04-15T06:24:14;8.40;99.90
32107;DHT22;18622;51.998;10.440;2023-04-15T06:26:42;8.40;99.90
32107;DHT22;18622;51.998;10.440;2023-04-15T06:29:10;8.50;99.90
32107;DHT22;18622;51.998;10.440;2023-04-15T06:31:37;8.50;99.90
32107;DHT22;18622;51.998;10.440;2023-04-15T06:34:05;8.50;99.90
32107;DHT22;18622;51.998;10.440;2023-04-15T06:36:33;8.50;99.90
32107;DHT22;18622;51.998;10.440;2023-04-15T06:39:01;8.60;99.90
32107;DHT22;18622;51.998;10.440;2023-04-15T06:41:29;8.60;99.90
32107;DHT22;18622;51.998;10.440;2023-04-15T06:43:57;8.60;99.90
32107;DHT22;18622;51.998;10.440;2023-04-15T06:46:25;8.60;99.90
32107;DHT22;18622;51.998;10.440;2023-04-15T06:48:53;8.60;99.90
32107;DHT22;18622;51.998;10.440;2023-04-15T06:51:21;8.60;99.90
32107;DHT22;18622;51.998;10.440;2023-04-15T06:53:49;8.70;99.90
32107;DHT22;18622;51.998;10.440;2023-04-15T06:56:17;8.70;99.90
32107;DHT22;18622;51.998;10.440;2023-04-15T06:58:45;8.70;99.90
32107;DHT22;18622;51.998;10.440;2023-04-15T07:01:13;8.70;99.90
32107;DHT22;18622;51.998;10.440;2023-04-15T07:03:40;8.70;99.90
32107;DHT22;18622;51.998;10.440;2023-04-15T07:06:08;8.70;99.90
32107;DHT22;18622;51.998;10.440;2023-04-15T07:08:36;8.70;99.90
32107;DHT22;18622;51.998;10.440;2023-04-15T07:11:04;8.70;99.90
32107;DHT22;18622;51.998;10.440;2023-04-15T07:13:32;8.70;99.90
32107;DHT22;18622;51.998;10.440;2023-04-15T07:16:00;8.70;99.90
32107;DHT22;18622;51.998;10.440;2023-04-15T07:18:28;8.80;99.90
32107;DHT22;18622;51.998;10.440;2023-04-15T07:20:56;8.80;99.90
32107;DHT22;18622;51.998;10.440;2023-04-15T07:23:24;8.90;99.90
32107;DHT22;18622;51.998;10.440;2023-04-15T07:25:52;9.00;99.90
32107;DHT22;18622;51.998;10.440;2023-04-15T07:28:20;9.00;99.90
32107;DHT22;18622;51.998;10.440;2023-04-15T07:30:48;9.10;99.90
32107;DHT22;18622;51.998;10.440;2023-04-15T07:33:16;9.10;99.90
32107;DHT22;18622;51.998;10.440;2023-04-15T07:35:44;9.10;99.90
32107;DHT22;18622;51.998;10.440;2023-04-15T07:38:11;9.10;99.90
32107;DHT22;18622;51.998;10.440;2023-04-15T07:40:39;9.10;99.90
32107;DHT22;18622;51.998;10.440;2023-04-15T07:43:07;9.10;99.90
32107;DHT22;18622;51.998;10.440;2023-04-15T07:45:35;9.10;99.90
32107;DHT22;18622;51.998;10.440;2023-04-15T07:48:04;9.10;99.90
32107;DHT22;18622;51.998;10.440;2023-04-15T07:50:32;9.10;99.90
32107;DHT22;18622;51.998;10.440;2023-04-15T07:52:59;9.10;99.90
32107;DHT22;18622;51.998;10.440;2023-04-15T07:55:27;9.10;99.90
32107;DHT22;18622;51.998;10.440;2023-04-15T07:57:56;9.10;99.90
32107;DHT22;18622;51.998;10.440;2023-04-15T08:00:23;9.10;99.90
32107;DHT22;18622;51.998;10.440;2023-04-15T08:02:52;9.20;99.90
32107;DHT22;18622;51.998;10.440;2023-04-15T08:05:21;9.20;99.90
32107;DHT22;18622;51.998;10.440;2023-04-15T08:07:48;9.30;99.90
32107;DHT22;18622;51.998;10.440;2023-04-15T08:10:16;9.30;99.90
32107;DHT22;18622;51.998;10.440;2023-04-15T08:12:44;9.40;99.90
32107;DHT22;18622;51.998;10.440;2023-04-15T08:15:13;9.50;99.90
32107;DHT22;18622;51.998;10.440;2023-04-15T08:17:41;9.50;99.90
32107;DHT22;18622;51.998;10.440;2023-04-15T08:20:09;9.50;99.90
32107;DHT22;18622;51.998;10.440;2023-04-15T08:22:37;9.40;99.90
32107;DHT22;18622;51.998;10.440;2023-04-15T08:25:06;9.40;99.90
32107;DHT22;18622;51.998;10.440;2023-04-15T08:27:34;9.40;99.90
32107;DHT22;18622;51.998;10.440;2023-04-15T08:30:02;9.40;99.90
32107;DHT22;18622;51.998;10.440;2023-04-15T08:32:30;9.50;99.90
32107;DHT22;18622;51.998;10.440;2023-04-15T08:34:58;9.40;99.90
32107;DHT22;18622;51.998;10.440;2023-04-15T08:37:26;9.40;99.90
32107;DHT22;18622;51.998;10.440;2023-04-15T08:39:54;9.40;99.90
32107;DHT22;18622;51.998;10.440;2023-04-15T08:42:35;9.40;99.90
32107;DHT22;18622;51.998;10.440;2023-04-15T08:45:03;9.40;99.90
32107;DHT22;18622;51.998;10.440;2023-04-15T08:47:32;9.40;99.90
32107;DHT22;18622;51.998;10.440;2023-04-15T08:50:02;9.40;99.90
32107;DHT22;18622;51.998;10.440;2023-04-15T08:52:30;9.60;99.90
32107;DHT22;18622;51.998;10.440;2023-04-15T08:54:59;9.60;99.90
32107;DHT22;18622;51.998;10.440;2023-04-15T08:57:29;9.60;99.90
32107;DHT22;18622;51.998;10.440;2023-04-15T08:59:57;9.60;99.90
32107;DHT22;18622;51.998;10.440;2023-04-15T09:02:26;9.60;99.90
32107;DHT22;18622;51.998;10.440;2023-04-15T09:04:53;9.60;99.90
32107;DHT22;18622;51.998;10.440;2023-04-15T09:07:22;9.60;99.90
32107;DHT22;18622;51.998;10.440;2023-04-15T09:09:49;9.60;99.90
32107;DHT22;18622;51.998;10.440;2023-04-15T09:12:18;9.60;99.90
32107;DHT22;18622;51.998;10.440;2023-04-15T09:14:45;9.60;99.90
32107;DHT22;18622;51.998;10.440;2023-04-15T09:17:17;9.60;99.90
32107;DHT22;18622;51.998;10.440;2023-04-15T09:19:44;9.60;99.90
32107;DHT22;18622;51.998;10.440;2023-04-15T09:22:12;9.60;99.90
32107;DHT22;18622;51.998;10.440;2023-04-15T09:24:40;9.50;99.90
32107;DHT22;18622;51.998;10.440;2023-04-15T09:27:09;9.50;99.90
32107;DHT22;18622;51.998;10.440;2023-04-15T09:29:36;9.50;99.90
32107;DHT22;18622;51.998;10.440;2023-04-15T09:32:15;9.40;99.90
32107;DHT22;18622;51.998;10.440;2023-04-15T09:34:43;9.40;99.90
32107;DHT22;18622;51.998;10.440;2023-04-15T09:37:11;9.50;99.90
32107;DHT22;18622;51.998;10.440;2023-04-15T09:39:51;9.50;99.90
32107;DHT22;18622;51.998;10.440;2023-04-15T09:42:19;9.60;99.90
32107;DHT22;18622;51.998;10.440;2023-04-15T09:44:48;9.60;99.90
32107;DHT22;18622;51.998;10.440;2023-04-15T09:47:32;9.50;99.90
32107;DHT22;18622;51.998;10.440;2023-04-15T09:50:00;9.50;99.90
32107;DHT22;18622;51.998;10.440;2023-04-15T09:52:29;9.50;99.90
32107;DHT22;18622;51.998;10.440;2023-04-15T09:54:58;9.50;99.90
32107;DHT22;18622;51.998;10.440;2023-04-15T09:57:34;9.50;99.90
32107;DHT22;18622;51.998;10.440;2023-04-15T10:00:04;9.50;99.90
32107;DHT22;18622;51.998;10.440;2023-04-15T10:02:34;9.60;99.90
32107;DHT22;18622;51.998;10.440;2023-04-15T10:05:02;9.50;99.90
32107;DHT22;18622;51.998;10.440;2023-04-15T10:07:30;9.60;99.90
32107;DHT22;18622;51.998;10.440;2023-04-15T10:09:59;9.60;99.90
32107;DHT22;18622;51.998;10.440;2023-04-15T10:12:28;9.60;99.90
32107;DHT22;18622;51.998;10.440;2023-04-15T10:14:59;9.60;99.90
32107;DHT22;18622;51.998;10.440;2023-04-15T10:17:28;9.70;99.90
32107;DHT22;18622;51.998;10.440;2023-04-15T10:20:00;9.70;99.90
32107;DHT22;18622;51.998;10.440;2023-04-15T10:22:29;9.70;99.90
32107;DHT22;18622;51.998;10.440;2023-04-15T10:24:58;9.70;99.90
32107;DHT22;18622;51.998;10.440;2023-04-15T10:27:26;9.70;99.90
32107;DHT22;18622;51.998;10.440;2023-04-15T10:29:56;9.80;99.90
32107;DHT22;18622;51.998;10.440;2023-04-15T10:32:24;9.80;99.90
32107;DHT22;18622;51.998;10.440;2023-04-15T10:34:52;9.80;99.90
32107;DHT22;18622;51.998;10.440;2023-04-15T10:37:22;9.80;99.90
32107;DHT22;18622;51.998;10.440;2023-04-15T10:39:51;9.80;99.90
32107;DHT22;18622;51.998;10.440;2023-04-15T10:42:19;9.80;99.90
32107;DHT22;18622;51.998;10.440;2023-04-15T10:44:50;9.90;99.90
32107;DHT22;18622;51.998;10.440;2023-04-15T10:47:20;9.90;99.90
32107;DHT22;18622;51.998;10.440;2023-04-15T10:49:56;9.90;99.90
32107;DHT22;18622;51.998;10.440;2023-04-15T10:52:25;9.90;99.90
32107;DHT22;18622;51.998;10.440;2023-04-15T10:55:11;10.00;99.90
32107;DHT22;18622;51.998;10.440;2023-04-15T10:57:37;10.00;99.90
32107;DHT22;18622;51.998;10.440;2023-04-15T11:00:11;10.10;99.90
32107;DHT22;18622;51.998;10.440;2023-04-15T11:02:41;10.10;99.90
32107;DHT22;18622;51.998;10.440;2023-04-15T11:05:10;10.20;99.90
32107;DHT22;18622;51.998;10.440;2023-04-15T11:12:52;10.30;99.90
32107;DHT22;18622;51.998;10.440;2023-04-15T11:15:38;10.30;99.90
32107;DHT22;18622;51.998;10.440;2023-04-15T11:18:21;10.40;99.90
32107;DHT22;18622;51.998;10.440;2023-04-15T11:20:51;10.40;99.90
32107;DHT22;18622;51.998;10.440;2023-04-15T11:23:35;10.50;99.90
32107;DHT22;18622;51.998;10.440;2023-04-15T11:26:05;10.50;99.90
32107;DHT22;18622;51.998;10.440;2023-04-15T11:28:35;10.50;99.90
32107;DHT22;18622;51.998;10.440;2023-04-15T11:31:11;10.60;99.90
32107;DHT22;18622;51.998;10.440;2023-04-15T11:33:56;10.70;99.90
32107;DHT22;18622;51.998;10.440;2023-04-15T11:36:29;10.70;99.90
32107;DHT22;18622;51.998;10.440;2023-04-15T11:38:59;10.80;99.90
32107;DHT22;18622;51.998;10.440;2023-04-15T11:41:27;10.80;99.90
32107;DHT22;18622;51.998;10.440;2023-04-15T11:43:55;10.80;99.90
32107;DHT22;18622;51.998;10.440;2023-04-15T11:46:30;10.90;99.90
32107;DHT22;18622;51.998;10.440;2023-04-15T11:48:58;11.00;99.90
32107;DHT22;18622;51.998;10.440;2023-04-15T11:51:26;11.00;99.90
32107;DHT22;18622;51.998;10.440;2023-04-15T11:53:55;11.00;99.90
32107;DHT22;18622;51.998;10.440;2023-04-15T11:56:24;11.00;99.90
32107;DHT22;18622;51.998;10.440;2023-04-15T11:58:53;11.00;99.90
32107;DHT22;18622;51.998;10.440;2023-04-15T12:01:34;11.10;99.90
32107;DHT22;18622;51.998;10.440;2023-04-15T12:04:10;11.10;99.90
32107;DHT22;18622;51.998;10.440;2023-04-15T12:06:38;11.10;99.90
32107;DHT22;18622;51.998;10.440;2023-04-15T12:09:09;11.10;99.90
32107;DHT22;18622;51.998;10.440;2023-04-15T12:11:45;11.10;99.90
32107;DHT22;18622;51.998;10.440;2023-04-15T12:14:30;11.20;99.90
32107;DHT22;18622;51.998;10.440;2023-04-15T12:16:59;11.20;99.90
32107;DHT22;18622;51.998;10.440;2023-04-15T12:22:01;11.20;99.90
32107;DHT22;18622;51.998;10.440;2023-04-15T12:24:33;11.30;99.90
32107;DHT22;18622;51.998;10.440;2023-04-15T12:27:06;11.30;99.90
32107;DHT22;18622;51.998;10.440;2023-04-15T12:29:35;11.30;99.90
32107;DHT22;18622;51.998;10.440;2023-04-15T12:32:09;11.40;99.90
32107;DHT22;18622;51.998;10.440;2023-04-15T12:34:39;11.40;99.90
32107;DHT22;18622;51.998;10.440;2023-04-15T12:37:07;11.50;99.90
32107;DHT22;18622;51.998;10.440;2023-04-15T12:39:41;11.50;99.90
32107;DHT22;18622;51.998;10.440;2023-04-15T12:42:06;11.60;99.90
32107;DHT22;18622;51.998;10.440;2023-04-15T12:44:35;11.60;99.90
32107;DHT22;18622;51.998;10.440;2023-04-15T12:47:04;11.60;99.90
32107;DHT22;18622;51.998;10.440;2023-04-15T12:49:32;11.70;99.90
32107;DHT22;18622;51.998;10.440;2023-04-15T12:52:01;11.60;99.90
32107;DHT22;18622;51.998;10.440;2023-04-15T12:54:30;11.70;99.90
32107;DHT22;18622;51.998;10.440;2023-04-15T12:56:58;11.70;99.90
32107;DHT22;18622;51.998;10.440;2023-04-15T12:59:26;11.70;99.90
32107;DHT22;18622;51.998;10.440;2023-04-15T13:01:54;11.70;99.90
32107;DHT22;18622;51.998;10.440;2023-04-15T13:04:22;11.70;99.90
32107;DHT22;18622;51.998;10.440;2023-04-15T13:06:50;11.70;99.90
32107;DHT22;18622;51.998;10.440;2023-04-15T13:09:18;11.80;99.90
32107;DHT22;18622;51.998;10.440;2023-04-15T13:11:46;11.80;99.90
32107;DHT22;18622;51.998;10.440;2023-04-15T13:14:14;11.80;99.90
32107;DHT22;18622;51.998;10.440;2023-04-15T13:16:42;11.80;99.90
32107;DHT22;18622;51.998;10.440;2023-04-15T13:19:11;11.90;99.90
32107;DHT22;18622;51.998;10.440;2023-04-15T13:21:40;11.90;99.90
32107;DHT22;18622;51.998;10.440;2023-04-15T13:24:08;12.00;99.90
32107;DHT22;18622;51.998;10.440;2023-04-15T13:26:36;12.00;99.90
32107;DHT22;18622;51.998;10.440;2023-04-15T13:29:04;12.10;99.90
32107;DHT22;18622;51.998;10.440;2023-04-15T13:31:32;12.10;99.90
32107;DHT22;18622;51.998;10.440;2023-04-15T13:34:00;12.20;99.90
32107;DHT22;18622;51.998;10.440;2023-04-15T13:36:28;12.20;99.90
32107;DHT22;18622;51.998;10.440;2023-04-15T13:38:56;12.20;99.90
32107;DHT22;18622;51.998;10.440;2023-04-15T13:41:25;12.20;99.90
32107;DHT22;18622;51.998;10.440;2023-04-15T13:43:53;12.20;99.90
32107;DHT22;18622;51.998;10.440;2023-04-15T13:46:21;12.30;99.90
32107;DHT22;18622;51.998;10.440;2023-04-15T13:48:49;12.30;99.90
32107;DHT22;18622;51.998;10.440;2023-04-15T13:51:17;12.30;99.90
32107;DHT22;18622;51.998;10.440;2023-04-15T13:53:45;12.30;99.90
32107;DHT22;18622;51.998;10.440;2023-04-15T13:56:12;12.20;99.90
32107;DHT22;18622;51.998;10.440;2023-04-15T13:58:40;12.20;99.90
32107;DHT22;18622;51.998;10.440;2023-04-15T14:01:08;12.20;99.90
32107;DHT22;18622;51.998;10.440;2023-04-15T14:03:36;12.10;99.90
32107;DHT22;18622;51.998;10.440;2023-04-15T14:06:05;12.10;99.90
32107;DHT22;18622;51.998;10.440;2023-04-15T14:08:32;12.10;99.90
32107;DHT22;18622;51.998;10.440;2023-04-15T14:11:00;12.10;99.90
32107;DHT22;18622;51.998;10.440;2023-04-15T14:13:28;12.10;99.90
32107;DHT22;18622;51.998;10.440;2023-04-15T14:15:56;12.10;99.90
32107;DHT22;18622;51.998;10.440;2023-04-15T14:18:24;12.00;99.90
32107;DHT22;18622;51.998;10.440;2023-04-15T14:20:52;12.00;99.90
32107;DHT22;18622;51.998;10.440;2023-04-15T14:23:20;12.00;99.90
32107;DHT22;18622;51.998;10.440;2023-04-15T14:25:48;11.90;99.90
32107;DHT22;18622;51.998;10.440;2023-04-15T14:28:16;11.90;99.90
32107;DHT22;18622;51.998;10.440;2023-04-15T14:30:44;11.80;99.90
32107;DHT22;18622;51.998;10.440;2023-04-15T14:33:12;11.80;99.90
32107;DHT22;18622;51.998;10.440;2023-04-15T14:35:40;11.80;99.90
32107;DHT22;18622;51.998;10.440;2023-04-15T14:38:07;11.70;99.90
32107;DHT22;18622;51.998;10.440;2023-04-15T14:40:36;11.70;99.90
32107;DHT22;18622;51.998;10.440;2023-04-15T14:43:04;11.70;99.90
32107;DHT22;18622;51.998;10.440;2023-04-15T14:45:32;11.80;99.90
32107;DHT22;18622;51.998;10.440;2023-04-15T14:48:01;11.80;99.90
32107;DHT22;18622;51.998;10.440;2023-04-15T14:50:29;11.70;99.90
32107;DHT22;18622;51.998;10.440;2023-04-15T14:52:58;11.70;99.90
32107;DHT22;18622;51.998;10.440;2023-04-15T14:55:27;11.60;99.90
32107;DHT22;18622;51.998;10.440;2023-04-15T14:57:55;11.60;99.90
32107;DHT22;18622;51.998;10.440;2023-04-15T15:00:23;11.50;99.90
32107;DHT22;18622;51.998;10.440;2023-04-15T15:02:50;11.50;99.90
32107;DHT22;18622;51.998;10.440;2023-04-15T15:05:18;11.50;99.90
32107;DHT22;18622;51.998;10.440;2023-04-15T15:07:46;11.50;99.90
32107;DHT22;18622;51.998;10.440;2023-04-15T15:10:14;11.50;99.90
32107;DHT22;18622;51.998;10.440;2023-04-15T15:12:42;11.40;99.90
32107;DHT22;18622;51.998;10.440;2023-04-15T15:15:10;11.40;99.90
32107;DHT22;18622;51.998;10.440;2023-04-15T15:17:37;11.40;99.90
32107;DHT22;18622;51.998;10.440;2023-04-15T15:20:06;11.40;99.90
32107;DHT22;18622;51.998;10.440;2023-04-15T15:22:34;11.30;99.90
32107;DHT22;18622;51.998;10.440;2023-04-15T15:25:01;11.30;99.90
32107;DHT22;18622;51.998;10.440;2023-04-15T15:27:29;11.30;99.90
32107;DHT22;18622;51.998;10.440;2023-04-15T15:29:58;11.40;99.90
32107;DHT22;18622;51.998;10.440;2023-04-15T15:32:26;11.40;99.90
32107;DHT22;18622;51.998;10.440;2023-04-15T15:34:53;11.40;99.90
32107;DHT22;18622;51.998;10.440;2023-04-15T15:37:21;11.50;99.90
32107;DHT22;18622;51.998;10.440;2023-04-15T15:39:51;11.50;99.90
32107;DHT22;18622;51.998;10.440;2023-04-15T15:42:19;11.40;99.90
32107;DHT22;18622;51.998;10.440;2023-04-15T15:44:47;11.50;99.90
32107;DHT22;18622;51.998;10.440;2023-04-15T15:47:15;11.50;99.90
32107;DHT22;18622;51.998;10.440;2023-04-15T15:49:43;11.50;99.90
32107;DHT22;18622;51.998;10.440;2023-04-15T15:52:11;11.50;99.90
32107;DHT22;18622;51.998;10.440;2023-04-15T15:54:40;11.40;99.90
32107;DHT22;18622;51.998;10.440;2023-04-15T15:57:08;11.40;99.90
32107;DHT22;18622;51.998;10.440;2023-04-15T15:59:36;11.40;99.90
32107;DHT22;18622;51.998;10.440;2023-04-15T16:02:10;11.40;99.90
32107;DHT22;18622;51.998;10.440;2023-04-15T16:04:38;11.50;99.90
32107;DHT22;18622;51.998;10.440;2023-04-15T16:07:09;11.50;99.90
32107;DHT22;18622;51.998;10.440;2023-04-15T16:09:37;11.50;99.90
32107;DHT22;18622;51.998;10.440;2023-04-15T16:12:06;11.50;99.90
32107;DHT22;18622;51.998;10.440;2023-04-15T16:14:34;11.60;99.90
32107;DHT22;18622;51.998;10.440;2023-04-15T16:17:02;11.60;99.90
32107;DHT22;18622;51.998;10.440;2023-04-15T16:19:30;11.60;99.90
32107;DHT22;18622;51.998;10.440;2023-04-15T16:21:59;11.60;99.90
32107;DHT22;18622;51.998;10.440;2023-04-15T16:24:27;11.60;99.90
32107;DHT22;18622;51.998;10.440;2023-04-15T16:26:56;11.60;99.90
32107;DHT22;18622;51.998;10.440;2023-04-15T16:29:25;11.60;99.90
32107;DHT22;18622;51.998;10.440;2023-04-15T16:31:54;11.70;99.90
32107;DHT22;18622;51.998;10.440;2023-04-15T16:34:22;11.70;99.90
32107;DHT22;18622;51.998;10.440;2023-04-15T16:36:50;11.70;99.90
32107;DHT22;18622;51.998;10.440;2023-04-15T16:39:18;11.80;99.90
32107;DHT22;18622;51.998;10.440;2023-04-15T16:41:46;11.80;99.90
32107;DHT22;18622;51.998;10.440;2023-04-15T16:44:13;11.80;99.90
32107;DHT22;18622;51.998;10.440;2023-04-15T16:46:41;11.80;99.90
32107;DHT22;18622;51.998;10.440;2023-04-15T16:49:09;11.80;99.90
32107;DHT22;18622;51.998;10.440;2023-04-15T16:51:37;11.80;99.90
32107;DHT22;18622;51.998;10.440;2023-04-15T16:54:05;11.80;99.90
32107;DHT22;18622;51.998;10.440;2023-04-15T16:56:33;11.80;99.90
32107;DHT22;18622;51.998;10.440;2023-04-15T16:59:01;11.80;99.90
32107;DHT22;18622;51.998;10.440;2023-04-15T17:01:29;11.80;99.90
32107;DHT22;18622;51.998;10.440;2023-04-15T17:03:57;11.90;99.90
32107;DHT22;18622;51.998;10.440;2023-04-15T17:06:24;11.90;99.90
32107;DHT22;18622;51.998;10.440;2023-04-15T17:08:52;11.90;99.90
32107;DHT22;18622;51.998;10.440;2023-04-15T17:11:20;11.90;99.90
32107;DHT22;18622;51.998;10.440;2023-04-15T17:13:48;11.90;99.90
32107;DHT22;18622;51.998;10.440;2023-04-15T17:16:17;11.90;99.90
32107;DHT22;18622;51.998;10.440;2023-04-15T17:18:44;11.90;99.90
32107;DHT22;18622;51.998;10.440;2023-04-15T17:21:13;11.90;99.90
32107;DHT22;18622;51.998;10.440;2023-04-15T17:23:41;11.90;99.90
32107;DHT22;18622;51.998;10.440;2023-04-15T17:26:09;11.90;99.90
32107;DHT22;18622;51.998;10.440;2023-04-15T17:28:37;11.90;99.90
32107;DHT22;18622;51.998;10.440;2023-04-15T17:31:05;11.90;99.90
32107;DHT22;18622;51.998;10.440;2023-04-15T17:33:33;11.80;99.90
32107;DHT22;18622;51.998;10.440;2023-04-15T17:36:00;11.90;99.90
32107;DHT22;18622;51.998;10.440;2023-04-15T17:38:28;11.90;99.90
32107;DHT22;18622;51.998;10.440;2023-04-15T17:40:56;11.90;99.90
32107;DHT22;18622;51.998;10.440;2023-04-15T17:43:24;11.90;99.90
32107;DHT22;18622;51.998;10.440;2023-04-15T17:45:52;11.90;99.90
32107;DHT22;18622;51.998;10.440;2023-04-15T17:48:20;11.90;99.90
32107;DHT22;18622;51.998;10.440;2023-04-15T17:50:47;12.00;99.90
32107;DHT22;18622;51.998;10.440;2023-04-15T17:53:15;12.00;99.90
32107;DHT22;18622;51.998;10.440;2023-04-15T17:55:43;12.00;99.90
32107;DHT22;18622;51.998;10.440;2023-04-15T17:58:11;12.00;99.90
32107;DHT22;18622;51.998;10.440;2023-04-15T18:00:39;12.00;99.90
32107;DHT22;18622;51.998;10.440;2023-04-15T18:03:07;12.00;99.90
32107;DHT22;18622;51.998;10.440;2023-04-15T18:05:35;12.10;99.90
32107;DHT22;18622;51.998;10.440;2023-04-15T18:08:03;12.10;99.90
32107;DHT22;18622;51.998;10.440;2023-04-15T18:10:32;12.00;99.90
32107;DHT22;18622;51.998;10.440;2023-04-15T18:13:00;12.10;99.90
32107;DHT22;18622;51.998;10.440;2023-04-15T18:15:29;12.10;99.90
32107;DHT22;18622;51.998;10.440;2023-04-15T18:17:58;12.10;99.90
32107;DHT22;18622;51.998;10.440;2023-04-15T18:20:26;12.10;99.90
32107;DHT22;18622;51.998;10.440;2023-04-15T18:22:54;12.10;99.90
32107;DHT22;18622;51.998;10.440;2023-04-15T18:25:22;12.10;99.90
32107;DHT22;18622;51.998;10.440;2023-04-15T18:27:49;12.10;99.90
32107;DHT22;18622;51.998;10.440;2023-04-15T18:30:17;12.10;99.90
32107;DHT22;18622;51.998;10.440;2023-04-15T18:32:45;12.10;99.90
32107;DHT22;18622;51.998;10.440;2023-04-15T18:35:14;12.10;99.90
32107;DHT22;18622;51.998;10.440;2023-04-15T18:37:42;12.10;99.90
32107;DHT22;18622;51.998;10.440;2023-04-15T18:40:11;12.10;99.90
32107;DHT22;18622;51.998;10.440;2023-04-15T18:42:38;12.10;99.90
32107;DHT22;18622;51.998;10.440;2023-04-15T18:45:07;12.00;99.90
32107;DHT22;18622;51.998;10.440;2023-04-15T18:47:35;12.10;99.90
32107;DHT22;18622;51.998;10.440;2023-04-15T18:50:03;12.00;99.90
32107;DHT22;18622;51.998;10.440;2023-04-15T18:52:30;12.10;99.90
32107;DHT22;18622;51.998;10.440;2023-04-15T18:54:59;12.10;99.90
32107;DHT22;18622;51.998;10.440;2023-04-15T18:57:31;12.00;99.90
32107;DHT22;18622;51.998;10.440;2023-04-15T18:59:59;12.10;99.90
32107;DHT22;18622;51.998;10.440;2023-04-15T19:02:27;12.10;99.90
32107;DHT22;18622;51.998;10.440;2023-04-15T19:04:54;12.10;99.90
32107;DHT22;18622;51.998;10.440;2023-04-15T19:07:22;12.10;99.90
32107;DHT22;18622;51.998;10.440;2023-04-15T19:09:50;12.10;99.90
32107;DHT22;18622;51.998;10.440;2023-04-15T19:12:19;12.10;99.90
32107;DHT22;18622;51.998;10.440;2023-04-15T19:14:46;12.10;99.90
32107;DHT22;18622;51.998;10.440;2023-04-15T19:17:14;12.20;99.90
32107;DHT22;18622;51.998;10.440;2023-04-15T19:19:42;12.10;99.90
32107;DHT22;18622;51.998;10.440;2023-04-15T19:22:10;12.10;99.90
32107;DHT22;18622;51.998;10.440;2023-04-15T19:24:38;12.10;99.90
32107;DHT22;18622;51.998;10.440;2023-04-15T19:27:06;12.10;99.90
32107;DHT22;18622;51.998;10.440;2023-04-15T19:29:33;12.00;99.90
32107;DHT22;18622;51.998;10.440;2023-04-15T19:32:01;12.00;99.90
32107;DHT22;18622;51.998;10.440;2023-04-15T19:34:29;11.90;99.90
32107;DHT22;18622;51.998;10.440;2023-04-15T19:36:57;11.90;99.90
32107;DHT22;18622;51.998;10.440;2023-04-15T19:39:25;11.90;99.90
32107;DHT22;18622;51.998;10.440;2023-04-15T19:41:53;11.90;99.90
32107;DHT22;18622;51.998;10.440;2023-04-15T19:44:21;11.90;99.90
32107;DHT22;18622;51.998;10.440;2023-04-15T19:46:49;11.90;99.90
32107;DHT22;18622;51.998;10.440;2023-04-15T19:49:19;11.80;99.90
32107;DHT22;18622;51.998;10.440;2023-04-15T19:51:49;11.80;99.90
32107;DHT22;18622;51.998;10.440;2023-04-15T19:54:17;11.80;99.90
32107;DHT22;18622;51.998;10.440;2023-04-15T19:56:44;11.80;99.90
32107;DHT22;18622;51.998;10.440;2023-04-15T19:59:12;11.80;99.90
32107;DHT22;18622;51.998;10.440;2023-04-15T20:01:40;11.80;99.90
32107;DHT22;18622;51.998;10.440;2023-04-15T20:04:08;11.80;99.90
32107;DHT22;18622;51.998;10.440;2023-04-15T20:06:36;11.80;99.90
32107;DHT22;18622;51.998;10.440;2023-04-15T20:09:03;11.80;99.90
32107;DHT22;18622;51.998;10.440;2023-04-15T20:11:31;11.80;99.90
32107;DHT22;18622;51.998;10.440;2023-04-15T20:13:59;11.80;99.90
32107;DHT22;18622;51.998;10.440;2023-04-15T20:16:27;11.80;99.90
32107;DHT22;18622;51.998;10.440;2023-04-15T20:18:55;11.80;99.90
32107;DHT22;18622;51.998;10.440;2023-04-15T20:21:25;11.70;99.90
32107;DHT22;18622;51.998;10.440;2023-04-15T20:23:53;11.70;99.90
32107;DHT22;18622;51.998;10.440;2023-04-15T20:26:21;11.70;99.90
32107;DHT22;18622;51.998;10.440;2023-04-15T20:28:50;11.70;99.90
32107;DHT22;18622;51.998;10.440;2023-04-15T20:31:19;11.70;99.90
32107;DHT22;18622;51.998;10.440;2023-04-15T20:33:47;11.70;99.90
32107;DHT22;18622;51.998;10.440;2023-04-15T20:36:15;11.80;99.90
32107;DHT22;18622;51.998;10.440;2023-04-15T20:38:42;11.80;99.90
32107;DHT22;18622;51.998;10.440;2023-04-15T20:41:10;11.80;99.90
32107;DHT22;18622;51.998;10.440;2023-04-15T20:43:38;11.80;99.90
32107;DHT22;18622;51.998;10.440;2023-04-15T20:46:06;11.70;99.90
32107;DHT22;18622;51.998;10.440;2023-04-15T20:48:34;11.80;99.90
32107;DHT22;18622;51.998;10.440;2023-04-15T20:51:01;11.70;99.90
32107;DHT22;18622;51.998;10.440;2023-04-15T20:53:29;11.80;99.90
32107;DHT22;18622;51.998;10.440;2023-04-15T20:55:57;11.80;99.90
32107;DHT22;18622;51.998;10.440;2023-04-15T20:58:25;11.80;99.90
